Phillips, Wisconsin
Current Conditions -  °F | °C
As of 2:55 PM on Thursday 27 Nov 2014 (Local Time) from KPBH Reporting Station
Scattered Clouds Scattered Clouds  
Wind Chill: 10°   Ceiling: Unl
Heat Index: 10°   Visibility: 10mi
Dew Point: -1°   Wind: 3mph
Humidity: 61%   Direction: 310°NW
Pressure: 30.32"   Gusts: NA
Location:  45.69°N, 90.41°W
Report Text: KPBH 272055Z AUTO 31003KT 10SM SCT027 M12/M19 A3032 RMK AO2 T11251186
Loading
Personal Weather Stations






























Interactive Weather Map New forecast layout! Learn more

10-Day Weather Forecast

Advertisements
Track Severe Weather on mobile